Time;durP1;ratioP1;P1;durP2;ratioP2;P2;SDS_P1;SDS_P2;PMS_P1;PMS_P2;Temp;Humidity;BMP_temperature;BMP_pressure;BME280_temperature;BME280_humidity;BME280_pressure;Samples;Min_cycle;Max_cycle;Signal;HPM_P1;HPM_P2
2023/10/18 00:02:51;;;;;;;23.08;12.77;;;;;;;;;;5076420;28;20040;-67
2023/10/18 00:05:21;;;;;;;25.30;14.25;;;;;;;;;;5074390;28;20020;-67
2023/10/18 00:07:51;;;;;;;25.67;15.35;;;;;;;;;;5075652;28;20654;-67
2023/10/18 00:10:17;;;;;;;28.25;15.80;;;;;;;;;;5072414;28;20424;-68
2023/10/18 00:12:47;;;;;;;25.65;15.48;;;;;;;;;;5074968;28;20095;-67
2023/10/18 00:15:14;;;;;;;24.33;14.02;;;;;;;;;;5077004;28;20024;-67
2023/10/18 00:17:40;;;;;;;24.65;13.90;;;;;;;;;;5077463;28;20027;-67
2023/10/18 00:20:13;;;;;;;30.52;15.15;;;;;;;;;;5077527;28;20095;-67
2023/10/18 00:22:39;;;;;;;27.58;15.65;;;;;;;;;;5078106;28;20036;-63
2023/10/18 00:25:06;;;;;;;26.90;16.35;;;;;;;;;;5077391;28;20057;-64
2023/10/18 00:27:31;;;;;;;25.25;15.90;;;;;;;;;;5076668;28;20363;-63
2023/10/18 00:29:58;;;;;;;29.55;16.67;;;;;;;;;;5076349;28;20028;-64
2023/10/18 00:32:23;;;;;;;23.25;15.20;;;;;;;;;;5075790;28;20032;-64
2023/10/18 00:34:49;;;;;;;28.50;18.02;;;;;;;;;;5076350;28;20032;-64
2023/10/18 00:37:21;;;;;;;29.45;18.23;;;;;;;;;;5076258;28;20103;-64
2023/10/18 00:39:47;;;;;;;30.33;18.10;;;;;;;;;;5075668;28;20355;-64
2023/10/18 00:42:33;;;;;;;37.25;20.85;;;;;;;;;;5077148;28;20020;-63
2023/10/18 00:45:11;;;;;;;30.35;18.92;;;;;;;;;;5076758;28;20382;-64
2023/10/18 00:47:37;;;;;;;23.17;15.75;;;;;;;;;;5075562;28;20043;-64
2023/10/18 00:50:04;;;;;;;28.63;16.85;;;;;;;;;;5076744;28;20426;-64
2023/10/18 00:52:30;;;;;;;22.45;15.45;;;;;;;;;;5076993;28;20017;-66
2023/10/18 00:54:57;;;;;;;25.70;15.55;;;;;;;;;;5073593;28;20044;-66
2023/10/18 00:57:34;;;;;;;27.35;16.13;;;;;;;;;;5076915;28;20123;-66
2023/10/18 01:00:06;;;;;;;21.20;13.52;;;;;;;;;;5076776;28;20052;-66
2023/10/18 01:02:35;;;;;;;22.63;12.52;;;;;;;;;;5076894;28;20421;-65
2023/10/18 01:05:03;;;;;;;23.50;13.27;;;;;;;;;;5076485;28;20035;-65
2023/10/18 01:07:30;;;;;;;20.52;13.27;;;;;;;;;;5076159;28;20082;-65
2023/10/18 01:09:57;;;;;;;22.42;14.05;;;;;;;;;;5076523;28;20139;-64
2023/10/18 01:12:23;;;;;;;21.08;13.77;;;;;;;;;;5074454;28;20471;-66
2023/10/18 01:14:49;;;;;;;20.98;12.98;;;;;;;;;;5076600;28;20032;-65
2023/10/18 01:17:16;;;;;;;21.70;13.23;;;;;;;;;;5076255;28;20012;-65
2023/10/18 01:19:41;;;;;;;27.52;14.43;;;;;;;;;;5075321;28;20077;-64
2023/10/18 01:22:07;;;;;;;52.38;21.48;;;;;;;;;;5075673;28;20099;-65
2023/10/18 01:24:36;;;;;;;46.47;20.33;;;;;;;;;;5074843;28;20028;-64
2023/10/18 01:27:05;;;;;;;41.25;18.40;;;;;;;;;;5076068;28;20031;-66
2023/10/18 01:29:31;;;;;;;35.72;17.77;;;;;;;;;;5075126;28;20074;-66
2023/10/18 01:31:57;;;;;;;39.13;18.20;;;;;;;;;;5074723;28;20105;-66
2023/10/18 01:34:23;;;;;;;30.38;16.40;;;;;;;;;;5076194;28;20033;-65
2023/10/18 01:36:52;;;;;;;24.98;15.45;;;;;;;;;;5076046;28;20549;-65
2023/10/18 01:39:21;;;;;;;26.48;15.55;;;;;;;;;;5076633;28;20024;-65
2023/10/18 01:41:51;;;;;;;22.27;14.23;;;;;;;;;;5076260;28;20458;-65
2023/10/18 01:44:18;;;;;;;23.40;13.73;;;;;;;;;;5075069;28;20139;-66
2023/10/18 01:46:45;;;;;;;20.20;12.82;;;;;;;;;;5057749;28;20078;-66
2023/10/18 01:49:13;;;;;;;19.63;12.77;;;;;;;;;;5075245;28;20063;-66
2023/10/18 01:51:42;;;;;;;21.73;12.85;;;;;;;;;;5075764;28;20027;-66
2023/10/18 01:54:12;;;;;;;21.63;12.50;;;;;;;;;;5076104;28;20032;-66
2023/10/18 01:56:38;;;;;;;22.27;12.88;;;;;;;;;;5074177;28;20041;-66
2023/10/18 01:59:08;;;;;;;19.15;12.10;;;;;;;;;;5074946;28;20036;-66
2023/10/18 02:01:35;;;;;;;21.70;11.65;;;;;;;;;;5074563;28;20025;-65
2023/10/18 02:04:02;;;;;;;19.05;11.98;;;;;;;;;;5074331;28;20052;-64
2023/10/18 02:06:28;;;;;;;19.73;11.82;;;;;;;;;;5101001;22;20696;-65
2023/10/18 02:09:00;;;;;;;20.38;12.50;;;;;;;;;;5099719;22;20056;-68
2023/10/18 02:11:25;;;;;;;15.43;11.03;;;;;;;;;;5057416;28;20021;-68
2023/10/18 02:13:52;;;;;;;19.38;11.60;;;;;;;;;;5075081;28;20467;-68
2023/10/18 02:16:19;;;;;;;21.95;11.40;;;;;;;;;;5075381;28;20032;-67
2023/10/18 02:19:21;;;;;;;16.38;11.50;;;;;;;;;;5085438;23;20065;-68
2023/10/18 02:21:49;;;;;;;19.73;12.05;;;;;;;;;;5015155;28;20049;-69
2023/10/18 02:24:15;;;;;;;18.10;12.30;;;;;;;;;;5017266;28;20038;-69
2023/10/18 02:26:53;;;;;;;19.10;12.40;;;;;;;;;;5034957;28;20540;-69
2023/10/18 02:29:20;;;;;;;19.42;12.02;;;;;;;;;;5034958;28;20502;-70
2023/10/18 02:31:45;;;;;;;19.02;12.15;;;;;;;;;;5034985;28;20029;-70
2023/10/18 02:34:14;;;;;;;19.88;11.77;;;;;;;;;;5034847;28;20036;-70
2023/10/18 02:36:40;;;;;;;17.30;11.98;;;;;;;;;;5034966;28;20029;-70
2023/10/18 02:39:07;;;;;;;23.60;13.23;;;;;;;;;;5035064;28;20509;-70
2023/10/18 02:41:37;;;;;;;21.00;13.10;;;;;;;;;;5017035;28;20059;-70
2023/10/18 02:44:07;;;;;;;20.95;12.82;;;;;;;;;;5034677;28;20041;-70
2023/10/18 02:46:33;;;;;;;20.35;13.30;;;;;;;;;;5000589;28;20029;-69
2023/10/18 02:49:00;;;;;;;21.23;12.98;;;;;;;;;;5035109;28;20040;-68
2023/10/18 02:51:26;;;;;;;19.58;11.82;;;;;;;;;;5035095;28;20060;-67
2023/10/18 02:53:53;;;;;;;18.73;11.57;;;;;;;;;;5033499;28;20037;-69
2023/10/18 02:57:01;;;;;;;20.77;12.50;;;;;;;;;;5032953;28;20095;-70
2023/10/18 02:59:07;;;;;;;17.55;11.27;;;;;;;;;;5011526;28;20527;-69
2023/10/18 03:01:39;;;;;;;15.80;11.23;;;;;;;;;;5033080;28;20112;-71
2023/10/18 03:04:08;;;;;;;18.55;10.90;;;;;;;;;;5016583;28;20049;-71
2023/10/18 03:06:34;;;;;;;18.48;11.85;;;;;;;;;;5016492;28;20036;-71
2023/10/18 03:09:00;;;;;;;20.77;13.77;;;;;;;;;;5033295;28;20029;-71
2023/10/18 03:11:26;;;;;;;22.67;13.23;;;;;;;;;;5032999;28;20036;-68
2023/10/18 03:13:52;;;;;;;24.27;13.15;;;;;;;;;;5034023;28;20030;-68
2023/10/18 03:16:38;;;;;;;27.08;14.65;;;;;;;;;;5016993;28;20033;-69
2023/10/18 03:19:12;;;;;;;25.67;14.27;;;;;;;;;;5034062;28;20029;-68
2023/10/18 03:21:40;;;;;;;24.67;13.32;;;;;;;;;;5029268;28;20046;-68
2023/10/18 03:24:06;;;;;;;20.95;13.13;;;;;;;;;;5014584;28;20084;-68
2023/10/18 03:26:35;;;;;;;19.35;12.27;;;;;;;;;;5014228;28;20034;-69
2023/10/18 03:29:22;;;;;;;17.98;11.77;;;;;;;;;;5029353;28;20025;-68
2023/10/18 03:31:50;;;;;;;21.10;12.93;;;;;;;;;;4996532;28;20057;-70
2023/10/18 03:36:54;;;;;;;28.25;14.13;;;;;;;;;;5028919;28;20503;-68
2023/10/18 03:39:20;;;;;;;76.05;35.15;;;;;;;;;;5014295;28;20037;-68
2023/10/18 03:42:08;;;;;;;43.58;21.65;;;;;;;;;;5024229;23;20040;-69
2023/10/18 03:44:33;;;;;;;25.60;14.07;;;;;;;;;;5051957;28;20056;-66
2023/10/18 03:47:24;;;;;;;21.10;13.10;;;;;;;;;;5035546;28;20029;-66
2023/10/18 03:49:53;;;;;;;56.05;22.98;;;;;;;;;;5035675;28;20091;-66
2023/10/18 03:52:19;;;;;;;72.35;26.60;;;;;;;;;;5019940;28;20029;-69
2023/10/18 03:57:27;;;;;;;49.00;21.08;;;;;;;;;;5035298;28;20545;-70
2023/10/18 03:59:53;;;;;;;32.45;19.20;;;;;;;;;;5036243;28;20025;-70
2023/10/18 04:04:50;;;;;;;34.78;21.33;;;;;;;;;;5053975;28;20029;-70
2023/10/18 04:07:24;;;;;;;42.80;20.55;;;;;;;;;;5053383;28;20021;-69
2023/10/18 04:12:27;;;;;;;33.97;24.35;;;;;;;;;;5035581;28;20124;-70
2023/10/18 04:14:55;;;;;;;31.83;22.42;;;;;;;;;;5053285;28;20043;-69
2023/10/18 04:17:36;;;;;;;34.80;22.70;;;;;;;;;;5035493;28;20078;-69
2023/10/18 04:20:31;;;;;;;35.30;20.75;;;;;;;;;;5053413;28;20033;-70
2023/10/18 04:22:51;;;;;;;29.30;19.45;;;;;;;;;;5053071;28;20045;-66
2023/10/18 04:25:32;;;;;;;24.58;15.88;;;;;;;;;;5035059;28;20057;-65
2023/10/18 04:27:58;;;;;;;28.08;17.25;;;;;;;;;;5043443;28;20036;-64
2023/10/18 04:35:44;;;;;;;31.45;19.17;;;;;;;;;;5093375;28;20032;-68
2023/10/18 04:38:21;;;;;;;33.17;19.50;;;;;;;;;;5093843;28;20458;-68
2023/10/18 04:40:55;;;;;;;34.35;19.13;;;;;;;;;;5092119;28;20016;-69
2023/10/18 04:43:25;;;;;;;32.17;19.92;;;;;;;;;;5088747;28;20040;-65
2023/10/18 04:45:56;;;;;;;34.13;17.83;;;;;;;;;;5074928;28;20044;-65
2023/10/18 04:48:44;;;;;;;30.70;17.30;;;;;;;;;;5094305;28;20042;-65
2023/10/18 04:51:07;;;;;;;31.77;17.30;;;;;;;;;;5093754;28;20142;-65
2023/10/18 04:53:33;;;;;;;40.88;22.52;;;;;;;;;;5094000;28;20612;-66
2023/10/18 04:55:58;;;;;;;48.60;22.13;;;;;;;;;;5075928;28;20055;-62
2023/10/18 04:58:29;;;;;;;53.10;25.35;;;;;;;;;;5093483;28;20020;-64
2023/10/18 05:00:57;;;;;;;57.70;26.67;;;;;;;;;;5093450;28;20565;-64
2023/10/18 05:03:30;;;;;;;53.65;27.83;;;;;;;;;;5093761;28;20020;-64
2023/10/18 05:05:58;;;;;;;46.42;25.33;;;;;;;;;;5075183;28;20031;-63
2023/10/18 05:08:24;;;;;;;59.08;24.98;;;;;;;;;;5093136;28;20031;-63
2023/10/18 05:10:52;;;;;;;56.22;29.80;;;;;;;;;;5075434;28;20040;-63
2023/10/18 05:13:32;;;;;;;52.80;29.58;;;;;;;;;;5093627;28;20135;-63
2023/10/18 05:15:59;;;;;;;;;;;;;;;;;;5079172;28;20024;-63
2023/10/18 05:18:25;;;;;;;54.13;30.58;;;;;;;;;;5097150;28;19911;-63
2023/10/18 05:23:26;;;;;;;38.17;22.70;;;;;;;;;;5096264;28;20082;-63
2023/10/18 05:25:57;;;;;;;34.30;20.77;;;;;;;;;;5096473;28;20474;-63
2023/10/18 05:28:28;;;;;;;29.33;18.42;;;;;;;;;;5081147;28;20074;-63
2023/10/18 05:43:58;;;;;;;40.35;23.02;;;;;;;;;;5074356;28;20045;-63
2023/10/18 05:46:27;;;;;;;;;;;;;;;;;;5073164;28;20497;-63
2023/10/18 05:48:55;;;;;;;34.88;20.27;;;;;;;;;;5074109;28;19908;-63
2023/10/18 05:53:49;;;;;;;34.53;22.02;;;;;;;;;;5055298;28;20044;-64
2023/10/18 05:56:14;;;;;;;33.42;22.73;;;;;;;;;;5073338;28;20037;-63
2023/10/18 05:58:40;;;;;;;34.67;23.25;;;;;;;;;;5074275;28;20120;-62
2023/10/18 06:01:05;;;;;;;42.60;26.38;;;;;;;;;;5057086;28;20475;-63
2023/10/18 06:03:39;;;;;;;42.88;26.63;;;;;;;;;;5075144;28;20020;-63
2023/10/18 06:06:06;;;;;;;42.08;26.95;;;;;;;;;;5090222;28;20085;-69
2023/10/18 06:08:32;;;;;;;42.45;25.58;;;;;;;;;;5084209;28;20032;-68
2023/10/18 06:11:08;;;;;;;40.08;24.20;;;;;;;;;;5095140;28;20043;-68
2023/10/18 06:13:35;;;;;;;35.80;22.92;;;;;;;;;;5095019;28;20020;-69
2023/10/18 06:16:17;;;;;;;42.33;25.25;;;;;;;;;;5073579;28;20036;-68
2023/10/18 06:18:45;;;;;;;38.00;25.02;;;;;;;;;;5093946;28;20070;-68
2023/10/18 06:21:12;;;;;;;45.65;26.15;;;;;;;;;;5083760;28;20054;-69
2023/10/18 06:23:37;;;;;;;45.95;25.40;;;;;;;;;;5083913;28;20035;-68
2023/10/18 06:28:53;;;;;;;42.72;25.45;;;;;;;;;;5093627;28;20032;-69
2023/10/18 06:31:21;;;;;;;42.75;25.58;;;;;;;;;;5093319;28;20090;-69
2023/10/18 06:33:51;;;;;;;43.80;25.40;;;;;;;;;;5093423;28;20036;-64
2023/10/18 06:36:18;;;;;;;45.85;26.25;;;;;;;;;;5093446;28;20038;-63
2023/10/18 06:38:44;;;;;;;56.53;29.90;;;;;;;;;;5093339;28;20020;-69
2023/10/18 06:41:18;;;;;;;58.42;31.60;;;;;;;;;;5077892;28;20363;-69
2023/10/18 06:43:44;;;;;;;61.97;34.97;;;;;;;;;;5094189;28;20052;-69
2023/10/18 06:46:22;;;;;;;58.40;34.90;;;;;;;;;;5093248;28;20024;-69
2023/10/18 06:48:48;;;;;;;63.00;37.13;;;;;;;;;;5093297;28;20070;-69
2023/10/18 06:51:17;;;;;;;57.13;34.00;;;;;;;;;;5094566;28;20051;-68
2023/10/18 06:53:50;;;;;;;51.13;30.92;;;;;;;;;;5093195;28;20454;-63
2023/10/18 06:56:20;;;;;;;39.60;23.83;;;;;;;;;;5093146;28;20054;-68
2023/10/18 06:58:46;;;;;;;34.13;21.48;;;;;;;;;;5067704;28;20036;-68
2023/10/18 07:01:19;;;;;;;38.67;22.30;;;;;;;;;;5094279;28;20028;-68
2023/10/18 07:03:45;;;;;;;40.00;24.52;;;;;;;;;;5094289;28;20028;-68
2023/10/18 07:06:23;;;;;;;42.92;26.02;;;;;;;;;;5094239;28;20115;-63
2023/10/18 07:08:52;;;;;;;38.33;24.33;;;;;;;;;;5091249;28;20059;-63
2023/10/18 07:11:18;;;;;;;33.58;21.42;;;;;;;;;;5093429;28;20020;-63
2023/10/18 07:13:46;;;;;;;42.65;24.92;;;;;;;;;;5075898;28;20076;-63
2023/10/18 07:16:12;;;;;;;48.28;27.70;;;;;;;;;;5094068;28;20024;-63
2023/10/18 07:18:44;;;;;;;45.75;28.15;;;;;;;;;;5093695;28;20032;-64
2023/10/18 07:21:10;;;;;;;43.55;26.55;;;;;;;;;;5078867;28;20066;-68
2023/10/18 07:23:36;;;;;;;43.60;25.98;;;;;;;;;;5093574;28;20101;-68
2023/10/18 07:26:07;;;;;;;46.78;27.20;;;;;;;;;;5094144;28;20077;-63
2023/10/18 07:28:35;;;;;;;48.08;28.38;;;;;;;;;;5093624;28;20028;-63
2023/10/18 07:31:01;;;;;;;51.10;30.45;;;;;;;;;;5073896;28;20039;-63
2023/10/18 07:33:26;;;;;;;54.67;30.63;;;;;;;;;;5074339;28;20481;-63
2023/10/18 07:35:52;;;;;;;59.10;31.80;;;;;;;;;;5092773;28;20020;-63
2023/10/18 07:38:25;;;;;;;53.00;30.38;;;;;;;;;;5092889;28;20085;-63
2023/10/18 07:40:57;;;;;;;52.85;30.48;;;;;;;;;;5091995;28;20085;-63
2023/10/18 07:43:25;;;;;;;44.67;25.77;;;;;;;;;;5091925;28;20036;-63
2023/10/18 07:45:53;;;;;;;41.40;23.38;;;;;;;;;;5092039;28;20028;-63
2023/10/18 07:48:19;;;;;;;35.05;23.55;;;;;;;;;;5092594;28;20040;-63
2023/10/18 07:50:49;;;;;;;42.72;25.33;;;;;;;;;;5074408;28;20034;-63
2023/10/18 07:53:15;;;;;;;34.65;21.92;;;;;;;;;;5092390;28;20107;-63
2023/10/18 07:55:43;;;;;;;39.63;22.67;;;;;;;;;;5093513;28;20103;-63
2023/10/18 07:58:17;;;;;;;42.53;25.67;;;;;;;;;;5059332;28;20016;-64
2023/10/18 08:01:06;;;;;;;35.30;21.70;;;;;;;;;;5093983;28;20059;-63
2023/10/18 08:03:29;;;;;;;37.92;23.50;;;;;;;;;;5093597;28;20032;-63
2023/10/18 08:05:56;;;;;;;30.27;20.95;;;;;;;;;;5093899;28;20032;-64
2023/10/18 08:08:24;;;;;;;34.33;20.88;;;;;;;;;;5075493;28;20066;-63
2023/10/18 08:10:53;;;;;;;33.40;19.15;;;;;;;;;;5093665;28;20062;-64
2023/10/18 08:13:25;;;;;;;28.33;18.70;;;;;;;;;;5075868;28;20040;-63
2023/10/18 08:16:01;;;;;;;25.33;15.60;;;;;;;;;;5093827;28;20071;-63
2023/10/18 08:18:44;;;;;;;28.23;17.83;;;;;;;;;;5089529;28;20074;-63
2023/10/18 08:21:36;;;;;;;27.58;17.20;;;;;;;;;;5093515;28;20032;-62
2023/10/18 08:24:08;;;;;;;23.05;12.93;;;;;;;;;;5079408;28;20031;-63
2023/10/18 08:26:46;;;;;;;24.67;14.10;;;;;;;;;;5098057;28;20028;-63
2023/10/18 08:29:13;;;;;;;22.27;14.20;;;;;;;;;;5079255;28;20124;-64
2023/10/18 08:31:38;;;;;;;26.50;15.27;;;;;;;;;;5097425;28;20047;-63
2023/10/18 08:34:14;;;;;;;23.48;14.13;;;;;;;;;;5079781;28;20028;-63
2023/10/18 08:36:42;;;;;;;22.83;12.88;;;;;;;;;;5097889;28;20043;-63
2023/10/18 08:39:09;;;;;;;20.30;12.38;;;;;;;;;;5097571;28;20107;-63
2023/10/18 08:41:37;;;;;;;17.73;11.63;;;;;;;;;;5097243;28;20109;-62
2023/10/18 08:44:15;;;;;;;18.30;10.70;;;;;;;;;;5097479;28;20060;-63
2023/10/18 08:46:51;;;;;;;17.92;10.70;;;;;;;;;;5097426;28;20493;-63
2023/10/18 08:49:18;;;;;;;14.77;9.57;;;;;;;;;;5097104;28;20035;-63
2023/10/18 08:51:54;;;;;;;20.63;11.85;;;;;;;;;;5097079;28;20394;-68
2023/10/18 08:54:23;;;;;;;20.83;11.80;;;;;;;;;;5097002;28;20077;-63
2023/10/18 08:56:49;;;;;;;19.70;10.98;;;;;;;;;;5096911;28;20038;-63
2023/10/18 08:59:18;;;;;;;16.88;11.45;;;;;;;;;;5096818;28;20099;-63
2023/10/18 09:02:09;;;;;;;18.75;10.82;;;;;;;;;;5078562;28;20462;-63
2023/10/18 09:04:31;;;;;;;14.32;9.45;;;;;;;;;;5078540;28;20067;-63
2023/10/18 09:06:57;;;;;;;19.20;11.00;;;;;;;;;;5097312;28;20056;-63
2023/10/18 09:09:23;;;;;;;16.65;10.32;;;;;;;;;;5096699;28;20550;-64
2023/10/18 09:11:48;;;;;;;18.95;11.45;;;;;;;;;;5078505;28;20051;-63
2023/10/18 09:14:15;;;;;;;18.52;11.02;;;;;;;;;;5078344;28;20532;-63
2023/10/18 09:16:42;;;;;;;16.13;9.50;;;;;;;;;;5097278;28;20082;-62
2023/10/18 09:24:22;;;;;;;11.07;7.10;;;;;;;;;;5096652;28;20078;-63
2023/10/18 09:26:49;;;;;;;11.63;7.53;;;;;;;;;;5077956;28;20036;-63
2023/10/18 09:29:16;;;;;;;11.63;7.40;;;;;;;;;;5096445;28;20036;-68
2023/10/18 09:31:54;;;;;;;10.60;6.30;;;;;;;;;;5086894;22;20060;-69
2023/10/18 09:34:20;;;;;;;9.88;6.05;;;;;;;;;;5073255;28;20150;-63
2023/10/18 09:36:53;;;;;;;6.82;4.78;;;;;;;;;;5072925;28;20522;-64
2023/10/18 09:39:21;;;;;;;8.00;5.50;;;;;;;;;;5074159;28;20027;-64
2023/10/18 09:41:47;;;;;;;5.60;4.15;;;;;;;;;;5075198;28;20337;-63
2023/10/18 09:44:12;;;;;;;6.10;4.32;;;;;;;;;;5076320;28;20067;-63
2023/10/18 09:46:38;;;;;;;6.80;4.90;;;;;;;;;;5075847;28;20025;-62
2023/10/18 09:49:06;;;;;;;7.18;5.00;;;;;;;;;;5076447;28;20075;-64
2023/10/18 09:51:32;;;;;;;5.53;4.18;;;;;;;;;;5075759;28;20427;-63
2023/10/18 09:53:59;;;;;;;5.68;4.32;;;;;;;;;;5074423;28;20064;-63
2023/10/18 09:56:33;;;;;;;6.38;4.50;;;;;;;;;;5075684;28;20036;-63
2023/10/18 09:59:25;;;;;;;6.43;5.45;;;;;;;;;;5075097;28;20032;-64
2023/10/18 10:04:21;;;;;;;5.32;4.78;;;;;;;;;;5074228;28;20352;-63
2023/10/18 10:06:47;;;;;;;8.35;4.53;;;;;;;;;;5073502;28;20089;-63
2023/10/18 10:09:15;;;;;;;5.78;4.18;;;;;;;;;;5074597;28;20093;-63
2023/10/18 10:11:43;;;;;;;5.38;3.25;;;;;;;;;;5072336;28;20033;-63
2023/10/18 10:14:15;;;;;;;8.10;4.70;;;;;;;;;;5072463;28;20028;-63
2023/10/18 10:16:45;;;;;;;5.60;3.28;;;;;;;;;;5074125;28;20032;-63
2023/10/18 10:19:12;;;;;;;7.93;4.93;;;;;;;;;;5071327;28;20033;-64
2023/10/18 10:21:40;;;;;;;5.78;4.38;;;;;;;;;;5072262;28;20017;-63
2023/10/18 10:26:53;;;;;;;8.43;4.82;;;;;;;;;;5074025;28;20382;-63
2023/10/18 10:31:57;;;;;;;5.35;4.85;;;;;;;;;;5073961;28;20386;-63
2023/10/18 10:34:26;;;;;;;8.38;4.90;;;;;;;;;;5074225;28;20119;-63
2023/10/18 10:37:20;;;;;;;5.75;4.47;;;;;;;;;;5074186;28;20105;-63
2023/10/18 10:40:18;;;;;;;4.55;3.97;;;;;;;;;;5073661;28;20031;-63
2023/10/18 10:42:43;;;;;;;5.15;3.88;;;;;;;;;;5072211;28;20036;-63
2023/10/18 10:47:45;;;;;;;8.13;4.10;;;;;;;;;;5074111;28;20035;-63
2023/10/18 10:50:30;;;;;;;2.35;2.15;;;;;;;;;;5074070;28;20111;-63
2023/10/18 10:52:58;;;;;;;6.97;4.97;;;;;;;;;;5071627;28;20033;-63
2023/10/18 10:55:24;;;;;;;8.65;5.18;;;;;;;;;;5073166;28;20474;-63
2023/10/18 10:57:50;;;;;;;5.93;4.60;;;;;;;;;;5072461;28;20024;-64
2023/10/18 11:00:50;;;;;;;5.30;3.97;;;;;;;;;;5072792;28;20017;-63
2023/10/18 11:03:26;;;;;;;5.53;3.60;;;;;;;;;;5071934;28;20052;-63
2023/10/18 11:05:58;;;;;;;6.70;4.38;;;;;;;;;;5073453;28;20024;-63
2023/10/18 11:08:24;;;;;;;4.88;3.97;;;;;;;;;;5073041;28;20029;-63
2023/10/18 11:10:50;;;;;;;4.85;3.42;;;;;;;;;;5071775;28;20017;-64
2023/10/18 11:13:22;;;;;;;6.60;4.00;;;;;;;;;;5071558;28;20032;-63
2023/10/18 11:15:54;;;;;;;7.15;4.25;;;;;;;;;;5071565;28;20107;-63
2023/10/18 11:18:20;;;;;;;5.13;4.18;;;;;;;;;;5071536;28;20032;-63
2023/10/18 11:21:05;;;;;;;6.70;4.55;;;;;;;;;;5072479;28;20024;-63
2023/10/18 11:23:33;;;;;;;3.90;3.08;;;;;;;;;;5071373;28;20043;-63
2023/10/18 11:26:01;;;;;;;5.90;3.97;;;;;;;;;;5071807;28;20505;-63
2023/10/18 11:28:29;;;;;;;6.60;4.53;;;;;;;;;;5073169;28;20032;-63
2023/10/18 11:30:56;;;;;;;6.80;3.85;;;;;;;;;;5071808;28;20051;-63
2023/10/18 11:33:46;;;;;;;6.00;4.68;;;;;;;;;;5072859;28;20035;-63
2023/10/18 11:36:12;;;;;;;6.80;3.90;;;;;;;;;;5072284;28;20028;-63
2023/10/18 11:38:38;;;;;;;6.57;4.57;;;;;;;;;;5072550;28;20051;-63
2023/10/18 11:41:11;;;;;;;7.47;3.97;;;;;;;;;;5070571;28;20381;-63
2023/10/18 11:43:40;;;;;;;4.00;3.47;;;;;;;;;;5071988;28;20064;-63
2023/10/18 11:46:06;;;;;;;4.32;3.65;;;;;;;;;;5072973;28;20466;-63
2023/10/18 11:48:35;;;;;;;6.53;4.13;;;;;;;;;;5072833;28;20024;-63
2023/10/18 11:51:02;;;;;;;5.47;4.97;;;;;;;;;;5072310;28;20044;-64
2023/10/18 11:53:27;;;;;;;5.47;4.15;;;;;;;;;;5072691;28;20067;-69
2023/10/18 11:55:56;;;;;;;6.15;4.82;;;;;;;;;;5073181;28;20063;-63
2023/10/18 11:58:28;;;;;;;8.85;6.20;;;;;;;;;;5072881;28;20116;-63
2023/10/18 12:01:05;;;;;;;7.18;5.70;;;;;;;;;;5072709;28;20379;-63
2023/10/18 12:03:33;;;;;;;6.63;3.92;;;;;;;;;;5072960;28;20033;-63
2023/10/18 12:06:00;;;;;;;4.40;3.97;;;;;;;;;;5072833;28;20033;-63
2023/10/18 12:08:30;;;;;;;6.70;3.97;;;;;;;;;;5072941;28;20078;-63
2023/10/18 12:10:56;;;;;;;6.97;3.75;;;;;;;;;;5072692;28;20032;-62
2023/10/18 12:13:22;;;;;;;5.18;4.30;;;;;;;;;;5072895;28;20029;-63
2023/10/18 12:15:47;;;;;;;6.65;5.32;;;;;;;;;;5072874;28;20570;-63
2023/10/18 12:18:14;;;;;;;12.93;6.00;;;;;;;;;;5072662;28;20725;-63
2023/10/18 12:20:45;;;;;;;6.57;4.25;;;;;;;;;;5072670;28;20067;-63
2023/10/18 12:23:18;;;;;;;5.13;4.20;;;;;;;;;;5070865;28;20135;-63
2023/10/18 12:25:44;;;;;;;6.25;4.03;;;;;;;;;;5072114;28;20037;-63
2023/10/18 12:28:14;;;;;;;5.80;5.03;;;;;;;;;;5072045;28;20021;-64
2023/10/18 12:30:41;;;;;;;5.38;3.92;;;;;;;;;;5072065;28;20040;-64
2023/10/18 12:33:06;;;;;;;4.97;4.18;;;;;;;;;;5072077;28;20017;-63
2023/10/18 12:35:33;;;;;;;4.72;3.80;;;;;;;;;;5071517;28;20139;-64
2023/10/18 12:37:59;;;;;;;6.35;4.38;;;;;;;;;;5072207;28;20028;-64
2023/10/18 12:40:38;;;;;;;6.97;4.53;;;;;;;;;;5070067;28;20077;-63
2023/10/18 12:43:06;;;;;;;12.57;5.93;;;;;;;;;;5071541;28;20025;-64
2023/10/18 12:45:42;;;;;;;5.35;4.57;;;;;;;;;;5071190;28;20036;-64
2023/10/18 12:48:09;;;;;;;5.55;4.80;;;;;;;;;;5071764;28;20526;-63
2023/10/18 12:50:35;;;;;;;7.30;5.80;;;;;;;;;;5072054;28;20050;-64
2023/10/18 12:55:58;;;;;;;7.15;4.68;;;;;;;;;;5048234;28;20068;-63
2023/10/18 12:58:28;;;;;;;8.32;3.92;;;;;;;;;;5071347;28;20051;-63
2023/10/18 13:01:09;;;;;;;6.45;4.53;;;;;;;;;;5070983;28;20040;-64
2023/10/18 13:03:37;;;;;;;6.35;4.50;;;;;;;;;;5071082;28;20040;-63
2023/10/18 13:06:07;;;;;;;5.60;3.85;;;;;;;;;;5071622;28;20029;-62
2023/10/18 13:08:37;;;;;;;7.82;4.45;;;;;;;;;;5070213;28;20089;-63
2023/10/18 13:13:32;;;;;;;22.38;11.40;;;;;;;;;;5075971;28;20036;-63
2023/10/18 13:15:58;;;;;;;66.15;34.35;;;;;;;;;;5075690;28;20031;-63
2023/10/18 13:18:25;;;;;;;11.05;7.10;;;;;;;;;;5075578;28;20366;-63
2023/10/18 13:20:55;;;;;;;6.53;3.92;;;;;;;;;;5074431;28;20031;-64
2023/10/18 13:23:27;;;;;;;5.78;4.35;;;;;;;;;;5075789;28;20681;-63
2023/10/18 13:25:53;;;;;;;8.07;4.55;;;;;;;;;;5074451;28;20025;-63
2023/10/18 13:28:33;;;;;;;6.13;4.65;;;;;;;;;;5074341;28;20409;-63
2023/10/18 13:31:04;;;;;;;;;;;;;;;;;;5074268;28;20045;-63
2023/10/18 13:33:30;;;;;;;4.95;4.05;;;;;;;;;;5074905;28;20354;-63
2023/10/18 13:35:56;;;;;;;3.85;3.42;;;;;;;;;;5075338;28;20059;-62
2023/10/18 13:38:23;;;;;;;6.53;3.97;;;;;;;;;;5073556;28;20442;-62
2023/10/18 13:40:49;;;;;;;5.15;3.78;;;;;;;;;;5074536;28;20032;-63
2023/10/18 13:43:15;;;;;;;5.85;4.47;;;;;;;;;;5073696;28;20050;-63
2023/10/18 13:45:45;;;;;;;5.72;4.50;;;;;;;;;;5074374;28;20037;-64
2023/10/18 13:48:11;;;;;;;;;;;;;;;;;;5075906;28;20478;-63
2023/10/18 13:50:37;;;;;;;4.70;3.88;;;;;;;;;;5073917;28;19908;-64
2023/10/18 13:53:03;;;;;;;8.27;4.78;;;;;;;;;;5074992;28;20039;-68
2023/10/18 13:55:35;;;;;;;7.97;4.18;;;;;;;;;;5075638;28;20036;-63
2023/10/18 13:58:00;;;;;;;5.97;4.07;;;;;;;;;;5075419;28;20021;-63
2023/10/18 14:00:27;;;;;;;5.95;4.40;;;;;;;;;;5075027;28;20035;-63
2023/10/18 14:02:55;;;;;;;5.65;4.00;;;;;;;;;;5074695;28;20073;-63
2023/10/18 14:05:21;;;;;;;4.60;4.15;;;;;;;;;;5073535;28;20028;-63
2023/10/18 14:07:47;;;;;;;5.10;4.15;;;;;;;;;;5073362;28;20051;-63
2023/10/18 14:10:35;;;;;;;5.75;3.88;;;;;;;;;;5074889;28;20032;-63
2023/10/18 14:13:06;;;;;;;4.07;3.67;;;;;;;;;;5074876;28;20051;-63
2023/10/18 14:15:34;;;;;;;6.38;4.78;;;;;;;;;;5074245;28;20034;-63
2023/10/18 14:18:03;;;;;;;5.95;4.53;;;;;;;;;;5073769;28;20021;-69
2023/10/18 14:20:43;;;;;;;7.03;4.38;;;;;;;;;;5072972;28;20032;-69
2023/10/18 14:23:10;;;;;;;5.68;4.43;;;;;;;;;;5073337;28;20459;-69
2023/10/18 14:25:37;;;;;;;6.32;3.35;;;;;;;;;;5074105;28;20040;-69
2023/10/18 14:28:03;;;;;;;6.20;4.13;;;;;;;;;;5073812;28;20029;-69
2023/10/18 14:30:35;;;;;;;6.47;4.88;;;;;;;;;;5073070;28;20039;-69
2023/10/18 14:33:01;;;;;;;5.38;4.13;;;;;;;;;;5071440;28;20040;-69
2023/10/18 14:35:27;;;;;;;6.75;4.43;;;;;;;;;;5054875;28;20475;-69
2023/10/18 14:37:52;;;;;;;7.22;4.38;;;;;;;;;;5073622;28;20017;-69
2023/10/18 14:40:23;;;;;;;4.95;4.00;;;;;;;;;;5074125;28;20089;-69
2023/10/18 14:42:50;;;;;;;6.47;4.57;;;;;;;;;;5072162;28;20067;-69
2023/10/18 14:45:16;;;;;;;6.18;4.85;;;;;;;;;;5071523;28;20055;-69
2023/10/18 14:47:41;;;;;;;9.10;6.05;;;;;;;;;;5071465;28;20082;-69
2023/10/18 14:50:07;;;;;;;8.90;5.95;;;;;;;;;;5071963;28;20025;-69
2023/10/18 14:52:32;;;;;;;9.02;5.25;;;;;;;;;;5071333;28;20034;-69
2023/10/18 14:55:00;;;;;;;8.13;5.65;;;;;;;;;;5070837;28;20063;-69
2023/10/18 14:57:26;;;;;;;10.43;5.72;;;;;;;;;;5071734;28;20490;-69
2023/10/18 14:59:51;;;;;;;9.10;5.63;;;;;;;;;;5073545;28;20021;-69
2023/10/18 15:02:17;;;;;;;7.97;5.38;;;;;;;;;;5073695;28;20013;-69
2023/10/18 15:04:44;;;;;;;8.23;5.60;;;;;;;;;;5073405;28;20033;-69
2023/10/18 15:07:09;;;;;;;8.88;6.10;;;;;;;;;;5073271;28;20066;-69
2023/10/18 15:09:39;;;;;;;7.05;5.93;;;;;;;;;;5071462;28;20070;-70
2023/10/18 15:12:06;;;;;;;13.18;7.28;;;;;;;;;;5071791;28;20352;-69
2023/10/18 15:14:32;;;;;;;25.85;11.02;;;;;;;;;;5072076;28;20459;-69
2023/10/18 15:16:59;;;;;;;30.80;13.52;;;;;;;;;;5073093;28;20111;-69
2023/10/18 15:19:29;;;;;;;27.27;15.18;;;;;;;;;;5071297;28;20416;-69
2023/10/18 15:21:54;;;;;;;41.28;17.98;;;;;;;;;;5072568;28;20025;-69
2023/10/18 15:24:20;;;;;;;44.75;17.05;;;;;;;;;;5072073;28;20033;-69
2023/10/18 15:26:46;;;;;;;61.40;22.08;;;;;;;;;;5070723;28;20058;-70
2023/10/18 15:29:16;;;;;;;31.02;15.18;;;;;;;;;;5072086;28;20692;-69
2023/10/18 15:31:41;;;;;;;18.75;10.30;;;;;;;;;;5071129;28;20097;-70
2023/10/18 15:34:07;;;;;;;15.23;8.70;;;;;;;;;;5072359;28;20032;-70
2023/10/18 15:36:32;;;;;;;26.15;14.23;;;;;;;;;;5072702;28;20036;-69
2023/10/18 15:38:59;;;;;;;32.65;16.67;;;;;;;;;;5072960;28;20033;-70
2023/10/18 15:41:25;;;;;;;33.78;18.75;;;;;;;;;;5072464;28;20024;-70